createdAt,value
2019-02-21T00:01:04.076Z,8.80
2019-02-21T00:03:32.537Z,8.70
2019-02-21T00:06:01.048Z,8.60
2019-02-21T00:08:29.486Z,8.50
2019-02-21T00:11:17.280Z,8.50
2019-02-21T00:13:45.721Z,8.50
2019-02-21T00:16:14.176Z,8.50
2019-02-21T00:18:43.595Z,8.30
2019-02-21T00:21:12.314Z,8.30
2019-02-21T00:23:40.787Z,8.20
2019-02-21T00:26:09.236Z,8.10
2019-02-21T00:28:37.688Z,8.00
2019-02-21T00:31:06.124Z,7.90
2019-02-21T00:33:34.579Z,7.90
2019-02-21T00:36:03.009Z,7.90
2019-02-21T00:38:31.465Z,7.80
2019-02-21T00:40:59.897Z,7.70
2019-02-21T00:43:28.367Z,7.60
2019-02-21T00:45:56.872Z,7.60
2019-02-21T00:48:26.309Z,7.60
2019-02-21T00:50:54.744Z,7.60
2019-02-21T00:53:23.209Z,7.60
2019-02-21T00:55:51.634Z,7.60
2019-02-21T00:58:39.435Z,7.60
2019-02-21T01:01:07.952Z,7.60
2019-02-21T01:03:36.413Z,7.50
2019-02-21T01:06:04.992Z,7.50
2019-02-21T01:08:33.449Z,7.50
2019-02-21T01:11:01.892Z,7.30
2019-02-21T01:13:30.355Z,7.20
2019-02-21T01:15:59.064Z,7.10
2019-02-21T01:18:27.519Z,7.10
2019-02-21T01:20:55.971Z,7.10
2019-02-21T01:23:24.519Z,7.10
2019-02-21T01:25:52.965Z,7.10
2019-02-21T01:28:21.423Z,7.20
2019-02-21T01:30:56.733Z,7.20
2019-02-21T01:33:20.067Z,7.20
2019-02-21T01:35:48.577Z,7.20
2019-02-21T01:38:17.095Z,7.30
2019-02-21T01:40:45.548Z,7.30
2019-02-21T01:43:13.978Z,7.30
2019-02-21T01:46:01.772Z,7.30
2019-02-21T01:48:30.214Z,7.30
2019-02-21T01:50:58.663Z,7.40
2019-02-21T01:53:27.104Z,7.40
2019-02-21T01:55:55.564Z,7.40
2019-02-21T01:58:24.082Z,7.50
2019-02-21T02:00:52.531Z,7.50
2019-02-21T02:03:20.967Z,7.50
2019-02-21T02:05:49.421Z,7.60
2019-02-21T02:08:17.856Z,7.60
2019-02-21T02:10:46.319Z,7.60
2019-02-21T02:13:24.044Z,7.60
2019-02-21T02:15:44.939Z,7.60
2019-02-21T02:18:13.402Z,7.70
2019-02-21T02:20:42.820Z,7.60
2019-02-21T02:23:11.271Z,7.70
2019-02-21T02:25:39.718Z,7.70
2019-02-21T02:28:08.199Z,7.60
2019-02-21T02:30:36.945Z,7.50
2019-02-21T02:33:05.520Z,7.50
2019-02-21T02:35:34.108Z,7.50
2019-02-21T02:38:03.548Z,7.40
2019-02-21T02:40:51.395Z,7.40
2019-02-21T02:43:19.865Z,7.40
2019-02-21T02:45:48.306Z,7.50
2019-02-21T02:48:16.827Z,7.50
2019-02-21T02:50:45.264Z,7.50
2019-02-21T02:53:13.805Z,7.60
2019-02-21T02:55:42.251Z,7.60
2019-02-21T02:58:10.721Z,7.60
2019-02-21T03:00:39.297Z,7.60
2019-02-21T03:03:07.748Z,7.60
2019-02-21T03:05:36.194Z,7.60
2019-02-21T03:08:04.710Z,7.60
2019-02-21T03:10:33.168Z,7.60
2019-02-21T03:13:01.623Z,7.60
2019-02-21T03:15:30.081Z,7.60
2019-02-21T03:17:58.527Z,7.60
2019-02-21T03:20:46.327Z,7.50
2019-02-21T03:23:14.775Z,7.60
2019-02-21T03:25:43.229Z,7.60
2019-02-21T03:28:11.665Z,7.60
2019-02-21T03:30:40.154Z,7.60
2019-02-21T03:33:08.938Z,7.50
2019-02-21T03:35:37.530Z,7.50
2019-02-21T03:38:06.111Z,7.50
2019-02-21T03:40:35.028Z,7.50
2019-02-21T03:43:03.667Z,7.50
2019-02-21T03:45:32.305Z,7.50
2019-02-21T03:48:00.738Z,7.50
2019-02-21T03:50:29.192Z,7.60
2019-02-21T03:52:57.727Z,7.60
2019-02-21T03:55:26.303Z,7.50
2019-02-21T03:57:54.824Z,7.50
2019-02-21T04:00:23.338Z,7.50
2019-02-21T04:02:51.864Z,7.50
2019-02-21T04:05:39.653Z,7.60
2019-02-21T04:08:08.100Z,7.50
2019-02-21T04:10:36.553Z,7.50
2019-02-21T04:13:05.013Z,7.50
2019-02-21T04:15:52.857Z,7.40
2019-02-21T04:18:21.376Z,7.40
2019-02-21T04:20:49.909Z,7.40
2019-02-21T04:23:18.428Z,7.40
2019-02-21T04:25:46.886Z,7.40
2019-02-21T04:28:34.685Z,7.50
2019-02-21T04:31:03.123Z,7.50
2019-02-21T04:33:34.158Z,7.40
2019-02-21T04:36:01.747Z,7.40
2019-02-21T04:38:30.197Z,7.40
2019-02-21T04:40:58.634Z,7.40
2019-02-21T04:43:27.101Z,7.30
2019-02-21T04:45:55.539Z,7.30
2019-02-21T04:48:23.980Z,7.30
2019-02-21T04:50:54.440Z,7.30
2019-02-21T04:53:22.610Z,7.30
2019-02-21T04:55:51.075Z,7.30
2019-02-21T04:58:20.491Z,7.30
2019-02-21T05:00:48.944Z,7.30
2019-02-21T05:03:17.392Z,7.30
2019-02-21T05:05:45.847Z,7.30
2019-02-21T05:08:14.290Z,7.30
2019-02-21T05:10:42.749Z,7.30
2019-02-21T05:13:11.185Z,7.20
2019-02-21T05:15:39.640Z,7.20
2019-02-21T05:18:09.057Z,7.10
2019-02-21T05:20:37.522Z,7.10
2019-02-21T05:23:06.028Z,7.00
2019-02-21T05:25:53.849Z,7.00
2019-02-21T05:28:26.863Z,6.90
2019-02-21T05:30:56.973Z,6.80
2019-02-21T05:33:41.891Z,6.80
2019-02-21T05:36:24.336Z,6.80
2019-02-21T05:39:10.916Z,6.70
2019-02-21T05:41:41.036Z,6.70
2019-02-21T05:44:14.066Z,6.70
2019-02-21T05:46:44.160Z,6.70
2019-02-21T05:49:14.236Z,6.70
2019-02-21T05:51:44.315Z,6.70
2019-02-21T05:54:17.104Z,6.70
2019-02-21T05:57:03.193Z,6.70
2019-02-21T05:59:39.111Z,6.70
2019-02-21T06:02:15.276Z,6.80
2019-02-21T06:04:52.065Z,6.70
2019-02-21T06:07:38.306Z,6.70
2019-02-21T06:10:08.397Z,6.70
2019-02-21T06:12:50.322Z,6.60
2019-02-21T06:15:20.424Z,6.60
2019-02-21T06:18:02.731Z,6.60
2019-02-21T06:20:35.810Z,6.60
2019-02-21T06:23:18.164Z,6.60
2019-02-21T06:25:59.166Z,6.60
2019-02-21T06:28:31.369Z,6.60
2019-02-21T06:31:01.508Z,6.60
2019-02-21T06:33:29.987Z,6.50
2019-02-21T06:35:58.525Z,6.60
2019-02-21T06:38:26.959Z,6.60
2019-02-21T06:40:55.420Z,6.60
2019-02-21T06:43:23.860Z,6.60
2019-02-21T06:45:52.320Z,6.70
2019-02-21T06:48:20.771Z,6.70
2019-02-21T06:51:08.556Z,6.70
2019-02-21T06:53:37.004Z,6.80
2019-02-21T06:56:05.754Z,6.90
2019-02-21T06:58:34.281Z,6.90
2019-02-21T07:01:02.770Z,6.90
2019-02-21T07:03:31.311Z,7.00
2019-02-21T07:05:59.764Z,7.00
2019-02-21T07:08:28.312Z,7.00
2019-02-21T07:11:05.836Z,7.00
2019-02-21T07:13:27.152Z,7.00
2019-02-21T07:15:58.420Z,7.10
2019-02-21T07:18:28.652Z,7.20
2019-02-21T07:20:56.130Z,7.20
2019-02-21T07:23:25.020Z,7.30
2019-02-21T07:25:54.928Z,7.30
2019-02-21T07:28:23.383Z,7.40
2019-02-21T07:30:52.371Z,7.40
2019-02-21T07:33:28.286Z,7.40
2019-02-21T07:35:51.021Z,7.50
2019-02-21T07:38:19.476Z,7.50
2019-02-21T07:40:47.918Z,7.50
2019-02-21T07:43:16.386Z,7.50
2019-02-21T07:45:44.892Z,7.60
2019-02-21T07:48:13.415Z,7.60
2019-02-21T07:50:41.940Z,7.70
2019-02-21T07:53:10.373Z,7.80
2019-02-21T07:55:38.832Z,7.90
2019-02-21T07:58:08.360Z,7.90
2019-02-21T08:00:56.155Z,8.00
2019-02-21T08:03:31.962Z,8.10
2019-02-21T08:05:54.779Z,8.20
2019-02-21T08:08:23.224Z,8.20
2019-02-21T08:10:51.754Z,8.20
2019-02-21T08:13:20.183Z,8.30
2019-02-21T08:15:48.761Z,8.40
2019-02-21T08:18:17.199Z,8.40
2019-02-21T08:21:04.996Z,8.40
2019-02-21T08:23:33.437Z,8.50
2019-02-21T08:26:01.891Z,8.50
2019-02-21T08:28:38.749Z,8.60
2019-02-21T08:31:07.209Z,8.70
2019-02-21T08:33:37.279Z,8.80
2019-02-21T08:36:25.081Z,8.80
2019-02-21T08:38:53.523Z,8.90
2019-02-21T08:41:21.991Z,9.00
2019-02-21T08:43:50.439Z,9.20
2019-02-21T08:46:19.900Z,9.40
2019-02-21T08:48:48.340Z,9.50
2019-02-21T08:51:18.425Z,9.50
2019-02-21T08:53:47.351Z,9.60
2019-02-21T08:56:15.807Z,9.70
2019-02-21T08:58:44.247Z,9.70
2019-02-21T09:01:12.715Z,9.80
2019-02-21T09:03:41.143Z,9.80
2019-02-21T09:06:09.665Z,10.00
2019-02-21T09:08:38.139Z,10.10
2019-02-21T09:11:06.647Z,10.20
2019-02-21T09:13:35.116Z,10.20
2019-02-21T09:16:03.633Z,10.30
2019-02-21T09:18:32.155Z,10.30
2019-02-21T09:21:00.608Z,10.30
2019-02-21T09:23:29.148Z,10.30
2019-02-21T09:25:57.596Z,10.30
2019-02-21T09:28:27.035Z,10.30
2019-02-21T09:30:55.487Z,10.50
2019-02-21T09:33:23.948Z,10.60
2019-02-21T09:35:52.393Z,10.60
2019-02-21T09:38:20.862Z,10.60
2019-02-21T09:40:49.447Z,10.60
2019-02-21T09:43:17.900Z,10.60
2019-02-21T09:45:46.426Z,10.60
2019-02-21T09:48:14.956Z,10.60
2019-02-21T09:50:44.415Z,10.60
2019-02-21T09:53:13.035Z,10.50
2019-02-21T09:55:41.516Z,10.50
2019-02-21T09:58:10.042Z,10.50
2019-02-21T10:00:38.651Z,10.50
2019-02-21T10:03:07.111Z,10.60
2019-02-21T10:05:35.551Z,10.80
2019-02-21T10:08:04.027Z,11.00
2019-02-21T10:10:32.477Z,11.20
2019-02-21T10:13:00.933Z,11.40
2019-02-21T10:15:31.400Z,11.50
2019-02-21T10:17:59.628Z,11.60
2019-02-21T10:20:28.072Z,11.70
2019-02-21T10:22:56.527Z,11.70
2019-02-21T10:25:29.979Z,11.70
2019-02-21T10:27:59.220Z,11.80
2019-02-21T10:30:27.860Z,11.90
2019-02-21T10:32:56.299Z,12.10
2019-02-21T10:35:24.779Z,12.20
2019-02-21T10:37:53.293Z,12.30
2019-02-21T10:40:22.728Z,12.20
2019-02-21T10:42:57.038Z,12.30
2019-02-21T10:45:25.496Z,12.30
2019-02-21T10:47:54.008Z,12.50
2019-02-21T10:50:22.920Z,12.70
2019-02-21T10:52:51.367Z,12.90
2019-02-21T10:55:19.829Z,13.10
2019-02-21T10:57:51.121Z,13.20
2019-02-21T11:00:29.279Z,13.10
2019-02-21T11:02:57.961Z,13.00
2019-02-21T11:05:26.564Z,13.00
2019-02-21T11:07:55.005Z,13.00
2019-02-21T11:10:30.988Z,13.00
2019-02-21T11:12:59.498Z,12.90
2019-02-21T11:15:29.953Z,13.00
2019-02-21T11:18:18.756Z,13.00
2019-02-21T11:20:47.383Z,13.10
2019-02-21T11:23:15.828Z,13.20
2019-02-21T11:25:44.282Z,13.40
2019-02-21T11:28:12.888Z,13.60
2019-02-21T11:30:41.412Z,13.60
2019-02-21T11:33:11.404Z,13.70
2019-02-21T11:35:40.000Z,13.80
2019-02-21T11:38:08.446Z,13.80
2019-02-21T11:40:37.903Z,13.90
2019-02-21T11:43:06.365Z,13.90
2019-02-21T11:45:34.844Z,14.00
2019-02-21T11:48:03.336Z,14.20
2019-02-21T11:50:40.703Z,14.30
2019-02-21T11:53:09.303Z,14.30
2019-02-21T11:55:37.771Z,14.30
2019-02-21T11:58:07.198Z,14.20
2019-02-21T12:00:36.294Z,14.30
2019-02-21T12:03:04.879Z,14.10
2019-02-21T12:05:33.332Z,14.20
2019-02-21T12:08:01.775Z,14.20
2019-02-21T12:10:30.246Z,14.40
2019-02-21T12:12:58.713Z,14.30
2019-02-21T12:15:27.155Z,14.30
2019-02-21T12:17:56.669Z,14.30
2019-02-21T12:20:25.103Z,14.30
2019-02-21T12:22:53.624Z,14.50
2019-02-21T12:25:24.391Z,14.70
2019-02-21T12:27:52.921Z,14.70
2019-02-21T12:30:21.705Z,14.70
2019-02-21T12:32:50.173Z,14.80
2019-02-21T12:35:29.161Z,15.00
2019-02-21T12:37:48.955Z,15.20
2019-02-21T12:40:23.714Z,15.50
2019-02-21T12:42:52.183Z,15.40
2019-02-21T12:45:29.424Z,15.30
2019-02-21T12:47:57.319Z,15.10
2019-02-21T12:50:25.905Z,15.10
2019-02-21T12:53:13.691Z,15.20
2019-02-21T12:55:42.148Z,14.90
2019-02-21T12:58:10.606Z,14.70
2019-02-21T13:00:39.046Z,14.70
2019-02-21T13:03:07.510Z,14.80
2019-02-21T13:05:55.281Z,14.80
2019-02-21T13:08:23.748Z,15.00
2019-02-21T13:10:52.362Z,15.20
2019-02-21T13:13:20.809Z,15.10
2019-02-21T13:15:49.277Z,15.00
2019-02-21T13:18:18.736Z,14.70
2019-02-21T13:20:47.208Z,14.70
2019-02-21T13:23:15.791Z,14.70
2019-02-21T13:25:44.320Z,14.70
2019-02-21T13:28:12.764Z,14.60
2019-02-21T13:30:41.314Z,14.70
2019-02-21T13:33:09.750Z,14.70
2019-02-21T13:35:38.216Z,14.70
2019-02-21T13:38:06.744Z,14.80
2019-02-21T13:40:35.376Z,14.70
2019-02-21T13:43:11.831Z,14.70
2019-02-21T13:45:40.297Z,14.60
2019-02-21T13:48:08.813Z,14.70
2019-02-21T13:50:56.649Z,14.80
2019-02-21T13:53:25.125Z,14.90
2019-02-21T13:56:12.916Z,14.90
2019-02-21T13:58:41.630Z,14.80
2019-02-21T14:01:10.159Z,14.70
2019-02-21T14:03:38.763Z,14.70
2019-02-21T14:06:07.204Z,14.50
2019-02-21T14:08:35.787Z,14.30
2019-02-21T14:11:04.375Z,14.30
2019-02-21T14:13:32.848Z,14.30
2019-02-21T14:16:01.384Z,14.20
2019-02-21T14:18:29.914Z,14.00
2019-02-21T14:20:58.428Z,14.00
2019-02-21T14:23:28.129Z,14.00
2019-02-21T14:25:56.711Z,14.00
2019-02-21T14:28:25.240Z,14.00
2019-02-21T14:30:53.681Z,13.90
2019-02-21T14:33:22.263Z,13.80
2019-02-21T14:35:50.763Z,13.70
2019-02-21T14:38:27.354Z,13.60
2019-02-21T14:40:49.560Z,13.60
2019-02-21T14:43:18.022Z,13.60
2019-02-21T14:45:55.588Z,13.60
2019-02-21T14:48:26.698Z,13.50
2019-02-21T14:50:54.292Z,13.60
2019-02-21T14:53:22.751Z,13.50
2019-02-21T14:55:51.226Z,13.50
2019-02-21T14:58:19.743Z,13.50
2019-02-21T15:00:57.043Z,13.50
2019-02-21T15:03:25.508Z,13.40
2019-02-21T15:05:53.952Z,13.40
2019-02-21T15:08:22.405Z,13.40
2019-02-21T15:10:52.655Z,13.40
2019-02-21T15:13:21.525Z,13.50
2019-02-21T15:15:50.003Z,13.50
2019-02-21T15:18:18.452Z,13.60
2019-02-21T15:20:46.924Z,13.60
2019-02-21T15:23:37.008Z,13.70
2019-02-21T15:26:04.954Z,13.70
2019-02-21T15:28:33.387Z,13.70
2019-02-21T15:31:01.931Z,13.60
2019-02-21T15:33:30.431Z,13.70
2019-02-21T15:35:59.017Z,13.70
2019-02-21T15:38:27.491Z,13.60
2019-02-21T15:40:56.025Z,13.60
2019-02-21T15:43:25.475Z,13.60
2019-02-21T15:45:53.934Z,13.60
2019-02-21T15:48:22.465Z,13.60
2019-02-21T15:50:50.924Z,13.60
2019-02-21T15:53:19.386Z,13.60
2019-02-21T15:55:47.821Z,13.60
2019-02-21T15:58:16.300Z,13.70
2019-02-21T16:00:44.964Z,13.70
2019-02-21T16:03:13.619Z,13.70
2019-02-21T16:05:42.067Z,13.60
2019-02-21T16:08:10.553Z,13.70
2019-02-21T16:10:39.821Z,13.70
2019-02-21T16:13:08.638Z,13.70
2019-02-21T16:15:37.154Z,13.70
2019-02-21T16:18:07.231Z,13.70
2019-02-21T16:20:35.682Z,13.60
2019-02-21T16:23:05.405Z,13.60
2019-02-21T16:25:34.343Z,13.60
2019-02-21T16:28:02.798Z,13.60
2019-02-21T16:30:31.283Z,13.50
2019-02-21T16:32:59.790Z,13.60
2019-02-21T16:35:29.255Z,13.60
2019-02-21T16:37:57.778Z,13.60
2019-02-21T16:40:26.245Z,13.60
2019-02-21T16:42:56.716Z,13.50
2019-02-21T16:45:25.178Z,13.50
2019-02-21T16:47:53.682Z,13.50
2019-02-21T16:50:29.798Z,13.50
2019-02-21T16:52:52.320Z,13.40
2019-02-21T16:55:23.102Z,13.40
2019-02-21T16:57:51.682Z,13.40
2019-02-21T17:00:21.587Z,13.50
2019-02-21T17:02:53.112Z,13.40
2019-02-21T17:05:21.664Z,13.40
2019-02-21T17:08:09.467Z,13.40
2019-02-21T17:10:38.011Z,13.40
2019-02-21T17:13:06.468Z,13.40
2019-02-21T17:15:34.924Z,13.40
2019-02-21T17:18:03.755Z,13.40
2019-02-21T17:20:32.645Z,13.40
2019-02-21T17:23:01.199Z,13.40
2019-02-21T17:25:29.676Z,13.30
2019-02-21T17:27:58.115Z,13.30
2019-02-21T17:30:27.152Z,13.40
2019-02-21T17:32:55.592Z,13.30
2019-02-21T17:35:24.043Z,13.30
2019-02-21T17:37:53.211Z,13.30
2019-02-21T17:40:23.232Z,13.40
2019-02-21T17:42:51.743Z,13.30
2019-02-21T17:45:20.395Z,13.30
2019-02-21T17:47:48.837Z,13.30
2019-02-21T17:50:20.789Z,13.30
2019-02-21T17:52:49.374Z,13.20
2019-02-21T17:55:18.697Z,13.20
2019-02-21T17:57:47.335Z,13.10
2019-02-21T18:00:27.407Z,13.10
2019-02-21T18:02:55.894Z,13.10
2019-02-21T18:05:24.550Z,13.20
2019-02-21T18:07:53.128Z,13.30
2019-02-21T18:10:22.246Z,13.20
2019-02-21T18:12:50.792Z,13.10
2019-02-21T18:15:19.385Z,13.10
2019-02-21T18:17:47.849Z,13.10
2019-02-21T18:20:16.743Z,13.10
2019-02-21T18:22:45.543Z,13.00
2019-02-21T18:25:35.412Z,12.90
2019-02-21T18:28:04.961Z,12.80
2019-02-21T18:30:33.561Z,12.70
2019-02-21T18:33:02.121Z,12.60
2019-02-21T18:35:30.593Z,12.60
2019-02-21T18:37:59.149Z,12.50
2019-02-21T18:40:28.348Z,12.50
2019-02-21T18:42:56.943Z,12.40
2019-02-21T18:45:25.461Z,12.30
2019-02-21T18:47:53.934Z,12.30
2019-02-21T18:50:22.549Z,12.30
2019-02-21T18:52:52.114Z,12.30
2019-02-21T18:55:20.579Z,12.30
2019-02-21T18:57:50.037Z,12.30
2019-02-21T19:00:21.337Z,12.30
2019-02-21T19:02:49.951Z,12.30
2019-02-21T19:05:18.631Z,12.20
2019-02-21T19:07:57.857Z,12.20
2019-02-21T19:10:19.687Z,12.20
2019-02-21T19:12:48.283Z,12.20
2019-02-21T19:15:19.594Z,12.20
2019-02-21T19:17:48.104Z,12.20
2019-02-21T19:20:18.094Z,12.20
2019-02-21T19:22:46.611Z,12.20
2019-02-21T19:25:15.362Z,12.20
2019-02-21T19:27:44.029Z,12.20
2019-02-21T19:30:25.754Z,12.20
2019-02-21T19:32:54.519Z,12.20
2019-02-21T19:35:23.250Z,12.20
2019-02-21T19:37:51.778Z,12.20
2019-02-21T19:40:20.442Z,12.20
2019-02-21T19:42:49.160Z,12.20
2019-02-21T19:45:17.813Z,12.20
2019-02-21T19:47:46.260Z,12.30
2019-02-21T19:50:14.791Z,12.30
2019-02-21T19:52:43.306Z,12.30
2019-02-21T19:55:12.708Z,12.40
2019-02-21T19:57:41.487Z,12.40
2019-02-21T20:00:14.280Z,12.40
2019-02-21T20:02:42.775Z,12.30
2019-02-21T20:05:11.444Z,12.40
2019-02-21T20:07:39.973Z,12.30
2019-02-21T20:10:09.232Z,12.40
2019-02-21T20:12:37.895Z,12.40
2019-02-21T20:15:12.220Z,12.40
2019-02-21T20:17:40.828Z,12.40
2019-02-21T20:20:12.368Z,12.40
2019-02-21T20:22:40.820Z,12.40
2019-02-21T20:25:09.395Z,12.40
2019-02-21T20:27:37.878Z,12.40
2019-02-21T20:30:09.775Z,12.40
2019-02-21T20:32:38.352Z,12.40
2019-02-21T20:35:07.152Z,12.40
2019-02-21T20:37:38.570Z,12.40
2019-02-21T20:40:09.020Z,12.40
2019-02-21T20:42:37.574Z,12.40
2019-02-21T20:45:11.280Z,12.40
2019-02-21T20:47:39.893Z,12.40
2019-02-21T20:50:10.231Z,12.50
2019-02-21T20:52:38.773Z,12.50
2019-02-21T20:55:08.667Z,12.50
2019-02-21T20:57:37.317Z,12.50
2019-02-21T21:00:09.195Z,12.40
2019-02-21T21:02:37.956Z,12.40
2019-02-21T21:05:06.627Z,12.40
2019-02-21T21:07:54.443Z,12.40
2019-02-21T21:10:22.913Z,12.40
2019-02-21T21:12:51.440Z,12.40
2019-02-21T21:15:20.065Z,12.40
2019-02-21T21:17:48.549Z,12.40
2019-02-21T21:20:17.540Z,12.40
2019-02-21T21:22:46.248Z,12.40
2019-02-21T21:25:16.933Z,12.40
2019-02-21T21:27:45.571Z,12.40
2019-02-21T21:30:15.592Z,12.40
2019-02-21T21:32:44.107Z,12.40
2019-02-21T21:35:12.572Z,12.30
2019-02-21T21:37:41.091Z,12.20
2019-02-21T21:40:15.652Z,12.20
2019-02-21T21:42:44.181Z,12.30
2019-02-21T21:45:17.650Z,12.20
2019-02-21T21:47:46.227Z,12.20
2019-02-21T21:50:16.629Z,12.20
2019-02-21T21:52:45.153Z,12.20
2019-02-21T21:55:14.252Z,12.10
2019-02-21T21:57:42.861Z,12.10
2019-02-21T22:00:20.475Z,12.10
2019-02-21T22:02:49.420Z,12.00
2019-02-21T22:05:18.048Z,12.00
2019-02-21T22:07:52.450Z,11.90
2019-02-21T22:10:20.989Z,11.90
2019-02-21T22:12:49.519Z,11.90
2019-02-21T22:15:22.591Z,11.90
2019-02-21T22:17:51.105Z,11.80
2019-02-21T22:20:19.635Z,11.70
2019-02-21T22:22:48.142Z,11.70
2019-02-21T22:25:16.674Z,11.60
2019-02-21T22:27:45.190Z,11.60
2019-02-21T22:30:17.614Z,11.70
2019-02-21T22:32:46.070Z,11.70
2019-02-21T22:35:14.585Z,11.60
2019-02-21T22:37:43.046Z,11.60
2019-02-21T22:40:19.133Z,11.60
2019-02-21T22:42:47.583Z,11.60
2019-02-21T22:45:16.076Z,11.60
2019-02-21T22:47:44.727Z,11.60
2019-02-21T22:50:15.408Z,11.50
2019-02-21T22:52:43.936Z,11.40
2019-02-21T22:55:12.555Z,11.30
2019-02-21T22:57:41.076Z,11.30
2019-02-21T23:00:21.987Z,11.20
2019-02-21T23:02:50.456Z,11.20
2019-02-21T23:05:21.987Z,11.20
2019-02-21T23:07:50.491Z,11.20
2019-02-21T23:10:19.268Z,11.20
2019-02-21T23:12:47.903Z,11.10
2019-02-21T23:15:16.512Z,11.10
2019-02-21T23:17:45.029Z,11.10
2019-02-21T23:20:13.551Z,11.10
2019-02-21T23:22:45.752Z,11.10
2019-02-21T23:25:33.675Z,11.10
2019-02-21T23:28:02.120Z,11.10
2019-02-21T23:30:30.586Z,11.00
2019-02-21T23:32:59.027Z,11.10
2019-02-21T23:35:27.490Z,11.00
2019-02-21T23:38:15.267Z,11.00
2019-02-21T23:40:43.730Z,10.90
2019-02-21T23:43:15.335Z,10.90
2019-02-21T23:45:43.801Z,10.90
2019-02-21T23:48:12.252Z,10.90
2019-02-21T23:50:40.804Z,10.90
2019-02-21T23:53:09.253Z,10.90
2019-02-21T23:55:37.721Z,10.90
2019-02-21T23:58:06.163Z,10.90
